createdAt,value
2019-03-24T00:00:52.796Z,19.98
2019-03-24T00:15:51.457Z,18.32
2019-03-24T00:30:50.741Z,22.65
2019-03-24T00:45:51.809Z,20.62
2019-03-24T01:00:52.080Z,17.70
2019-03-24T01:15:50.889Z,19.55
2019-03-24T01:30:51.239Z,21.62
2019-03-24T01:45:58.592Z,27.07
2019-03-24T02:00:51.199Z,25.00
2019-03-24T02:15:53.602Z,26.65
2019-03-24T02:30:50.825Z,30.57
2019-03-24T02:45:50.847Z,27.50
2019-03-24T03:00:51.054Z,30.35
2019-03-24T03:15:50.854Z,27.35
2019-03-24T03:30:50.919Z,28.20
2019-03-24T03:45:51.140Z,24.23
2019-03-24T04:00:51.282Z,26.75
2019-03-24T04:15:50.519Z,28.12
2019-03-24T04:30:50.278Z,24.63
2019-03-24T04:45:54.222Z,23.77
2019-03-24T05:00:51.207Z,26.77
2019-03-24T05:15:56.602Z,26.95
2019-03-24T05:30:50.687Z,29.40
2019-03-24T05:45:50.577Z,23.30
2019-03-24T06:00:50.573Z,20.65
2019-03-24T06:15:57.121Z,21.95
2019-03-24T06:30:51.166Z,18.73
2019-03-24T06:45:54.458Z,21.93
2019-03-24T07:00:50.242Z,22.02
2019-03-24T07:15:51.224Z,21.05
2019-03-24T07:30:51.294Z,23.12
2019-03-24T07:45:51.311Z,27.80
2019-03-24T08:00:54.675Z,28.12
2019-03-24T08:15:52.196Z,25.57
2019-03-24T08:30:51.100Z,27.10
2019-03-24T08:46:00.162Z,25.32
2019-03-24T09:00:51.053Z,21.73
2019-03-24T09:15:52.439Z,21.95
2019-03-24T09:30:51.371Z,17.12
2019-03-24T09:45:50.266Z,18.65
2019-03-24T10:00:56.374Z,19.15
2019-03-24T10:15:50.591Z,15.93
2019-03-24T10:30:50.510Z,19.25
2019-03-24T10:45:51.105Z,15.93
2019-03-24T11:00:54.097Z,10.98
2019-03-24T11:15:51.847Z,14.00
2019-03-24T11:30:51.086Z,14.73
2019-03-24T11:45:51.448Z,15.43
2019-03-24T12:00:52.879Z,20.17
2019-03-24T12:15:50.897Z,11.90
2019-03-24T12:30:51.993Z,12.93
2019-03-24T12:45:51.288Z,13.22
2019-03-24T13:00:51.437Z,12.47
2019-03-24T13:15:51.395Z,18.87
2019-03-24T13:30:51.244Z,12.20
2019-03-24T13:45:50.757Z,12.13
2019-03-24T14:00:50.517Z,11.80
2019-03-24T14:15:50.440Z,15.00
2019-03-24T14:30:50.807Z,14.35
2019-03-24T14:45:50.738Z,12.15
2019-03-24T15:00:51.385Z,11.75
2019-03-24T15:15:51.288Z,12.47
2019-03-24T15:30:50.971Z,14.23
2019-03-24T15:45:51.000Z,12.85
2019-03-24T16:00:51.039Z,19.60
2019-03-24T16:15:50.962Z,17.52
2019-03-24T16:30:51.307Z,22.85
2019-03-24T16:45:50.971Z,23.07
2019-03-24T17:00:56.787Z,28.60
2019-03-24T17:15:53.448Z,29.45
2019-03-24T17:30:50.365Z,30.15
2019-03-24T17:45:50.342Z,23.80
2019-03-24T18:00:52.682Z,23.45
2019-03-24T18:15:51.060Z,22.52
2019-03-24T18:30:51.097Z,23.05
2019-03-24T18:45:51.065Z,22.55
2019-03-24T19:00:53.899Z,21.73
2019-03-24T19:15:51.276Z,28.77
2019-03-24T19:45:54.452Z,24.67
2019-03-24T20:00:52.053Z,29.55
2019-03-24T20:15:50.514Z,29.42
2019-03-24T20:30:50.631Z,43.60
2019-03-24T20:45:50.533Z,28.10
2019-03-24T21:00:50.852Z,30.88
2019-03-24T21:15:50.853Z,29.63
2019-03-24T21:30:51.007Z,35.88
2019-03-24T21:45:52.729Z,30.32
2019-03-24T22:00:50.825Z,20.02
2019-03-24T22:15:56.498Z,18.27
2019-03-24T22:30:50.873Z,19.20
2019-03-24T22:45:51.430Z,25.23
2019-03-24T23:00:54.437Z,22.48
2019-03-24T23:15:51.304Z,20.60
2019-03-24T23:30:51.820Z,22.05
